This is the latest recevied weather packets stored in our database for station/object KD7CIH. If no packets are shown the sender has not sent any weather packets the latest 10 day(s).
| Time | Temp. | Humidity | Pressure | Rain* | Wind** | Luminosity | Snow |
|---|---|---|---|---|---|---|---|
| 1788014166 | 16.67° C | 69% | 1017.1 hPa | 0 mm | - | - | - |
| 1788013865 | 16.11° C | 71% | 1017.1 hPa | 0 mm | - | - | - |
| 1788013565 | 15° C | 75% | 1017.2 hPa | 0 mm | - | - | - |
| 1788013265 | 14.44° C | 84% | 1017.4 hPa | 0 mm | - | - | - |
| 1788012967 | 14.44° C | 85% | 1017.4 hPa | 0 mm | - | - | - |
| 1788012667 | 14.44° C | 85% | 1017.4 hPa | 0 mm | - | - | - |
| 1788012366 | 14.44° C | 85% | 1017.2 hPa | 0 mm | - | - | - |
| 1788012065 | 13.89° C | 85% | 1017.4 hPa | 0 mm | - | - | - |
| 1788011768 | 13.89° C | 86% | 1017.4 hPa | 0 mm | - | - | - |
| 1788011594 | 13.89° C | 86% | 1017.4 hPa | 0 mm | - | - | - |
| 1788011169 | 13.89° C | 86% | 1017.1 hPa | 0 mm | - | - | - |
| 1788010868 | 13.89° C | 86% | 1017.1 hPa | 0 mm | - | - | - |
| 1788010695 | 13.89° C | 86% | 1017 hPa | 0 mm | - | - | - |
| 1788010268 | 13.89° C | 86% | 1017 hPa | 0 mm | - | - | - |
| 1788009969 | 13.89° C | 86% | 1016.8 hPa | 0 mm | - | - | - |
| 1788009794 | 13.89° C | 86% | 1016.8 hPa | 0 mm | - | - | - |
| 1788009368 | 13.89° C | 86% | 1016.6 hPa | 0 mm | - | - | - |
| 1788009066 | 13.89° C | 87% | 1016.5 hPa | 0 mm | - | - | - |
| 1788008896 | 13.89° C | 88% | 1016.5 hPa | 0 mm | - | - | - |
| 1788008594 | 13.33° C | 88% | 1016.5 hPa | 0 mm | - | - | - |
| 1788008170 | 13.33° C | 88% | 1016.8 hPa | 0 mm | - | - | - |
| 1788007867 | 13.89° C | 88% | 1016.9 hPa | 0 mm | - | - | - |
| 1788007566 | 13.89° C | 88% | 1016.9 hPa | 0 mm | - | - | - |
| 1788007267 | 13.89° C | 88% | 1017 hPa | 0 mm | - | - | - |
| 1788006968 | 13.89° C | 87% | 1017 hPa | 0 mm | - | - | - |
* Rain latest hour (hover to see other rain measurements)
** Current wind speed in m/s (hover to see current wind gust speed)